Moodys, Oklahoma
Current Conditions -  °F | °C
As of 6:35 PM on Monday 24 Nov 2014 (Local Time) from KTQH Reporting Station
Clear Clear  
Wind Chill: 43°   Ceiling: Unl
Heat Index: 43°   Visibility: 10mi
Dew Point: 23°   Wind: 3mph
Humidity: 46%   Direction: 300°WNW
Pressure: 30.03"   Gusts: NA
Location:  36.03°N, 94.96°W
Report Text: KTQH 250035Z AUTO 30003KT 10SM CLR 06/M05 A3003 RMK AO2
Loading
Personal Weather Stations






























Interactive Weather Map New forecast layout! Learn more

10-Day Weather Forecast

Advertisements
Track Severe Weather on mobile